Time;durP1;ratioP1;P1;durP2;ratioP2;P2;SDS_P1;SDS_P2;PMS_P1;PMS_P2;Temp;Humidity;BMP_temperature;BMP_pressure;BME280_temperature;BME280_humidity;BME280_pressure;Samples;Min_cycle;Max_cycle;Signal;HPM_P1;HPM_P2
2022/12/15 00:40:03;;;;;;;;;;;;;;;;;;5081196;28;19996;-63
2022/12/15 00:42:31;;;;;;;;;;;;;;;;;;5082938;28;19931;-66
2022/12/15 00:44:56;;;;;;;;;;;;;;;;;;5080515;28;20454;-63
2022/12/15 00:47:22;;;;;;;;;;;;;;;;;;5085528;28;19934;-61
2022/12/15 01:22:35;;;;;;;;;;;;;;;;;;5083725;28;19935;-61
2022/12/15 01:25:01;;;;;;;;;;;;;;;;;;5074680;28;19924;-61
2022/12/15 01:27:26;;;;;;;;;;;;;;;;;;5082082;28;19928;-63
2022/12/15 01:29:51;;;;;;;;;;;;;;;;;;5081109;28;20027;-62
2022/12/15 01:32:16;;;;;;;;;;;;;;;;;;5077139;28;19932;-69
2022/12/15 01:34:42;;;;;;;;;;;;;;;;;;5078483;28;20419;-69
2022/12/15 01:37:07;;;;;;;;;;;;;;;;;;5081954;28;19932;-69
2022/12/15 01:42:16;;;;;;;;;;;;;;;;;;5077866;28;19951;-69
2022/12/15 01:44:43;;;;;;;;;;;;;;;;;;5079704;28;19928;-68
2022/12/15 01:47:11;;;;;;;;;;;;;;;;;;5082319;28;19978;-69
2022/12/15 01:49:37;;;;;;;;;;;;;;;;;;5083830;28;19938;-69
2022/12/15 01:52:04;;;;;;;;;;;;;;;;;;5082924;28;20020;-60
2022/12/15 01:54:32;;;;;;;;;;;;;;;;;;5083723;28;19954;-61
2022/12/15 01:57:07;;;;;;;;;;;;;;;;;;5082588;28;19932;-61
2022/12/15 01:59:34;;;;;;;;;;;;;;;;;;5080553;28;19928;-60
2022/12/15 02:02:00;;;;;;;;;;;;;;;;;;5084470;28;19932;-61
2022/12/15 02:04:25;;;;;;;;;;;;;;;;;;5079649;28;20049;-61
2022/12/15 02:06:51;;;;;;;;;;;;;;;;;;5083447;28;19920;-56
2022/12/15 02:09:18;;;;;;;;;;;;;;;;;;5080921;28;20061;-56
2022/12/15 02:11:51;;;;;;;;;;;;;;;;;;5084050;28;20273;-60
2022/12/15 02:14:26;;;;;;;;;;;;;;;;;;5079459;28;19928;-61
2022/12/15 02:16:51;;;;;;;;;;;;;;;;;;5084281;28;19925;-61
2022/12/15 02:19:36;;;;;;;;;;;;;;;;;;5083206;28;19928;-60
2022/12/15 02:22:23;;;;;;;;;;;;;;;;;;5087280;28;19978;-60
2022/12/15 02:24:48;;;;;;;;;;;;;;;;;;5084804;28;19927;-60
2022/12/15 02:27:14;;;;;;;;;;;;;;;;;;5089294;28;19920;-70
2022/12/15 02:29:48;;;;;;;;;;;;;;;;;;5086407;28;20412;-70
2022/12/15 02:32:14;;;;;;;;;;;;;;;;;;5087436;28;19928;-63
2022/12/15 02:34:45;;;;;;;;;;;;;;;;;;5086772;28;19939;-64
2022/12/15 02:37:14;;;;;;;;;;;;;;;;;;5086766;28;19941;-69
2022/12/15 02:39:39;;;;;;;;;;;;;;;;;;5083092;28;20274;-69
2022/12/15 02:42:04;;;;;;;;;;;;;;;;;;5085264;28;20018;-61
2022/12/15 02:44:34;;;;;;;;;;;;;;;;;;5085664;28;19985;-62
2022/12/15 02:47:02;;;;;;;;;;;;;;;;;;5087202;28;20002;-64
2022/12/15 02:49:30;;;;;;;;;;;;;;;;;;5085740;28;19931;-64
2022/12/15 02:52:04;;;;;;;;;;;;;;;;;;5084839;28;20426;-64
2022/12/15 02:54:45;;;;;;;;;;;;;;;;;;5085413;28;19928;-63
2022/12/15 02:57:10;;;;;;;;;;;;;;;;;;5083098;28;20363;-61
2022/12/15 02:59:39;;;;;;;;;;;;;;;;;;5081829;28;19943;-61
2022/12/15 03:02:06;;;;;;;;;;;;;;;;;;5079625;28;19928;-63
2022/12/15 03:04:32;;;;;;;;;;;;;;;;;;5083601;28;19934;-62
2022/12/15 03:07:00;;;;;;;;;;;;;;;;;;5079524;28;19934;-61
2022/12/15 03:09:25;;;;;;;;;;;;;;;;;;5082499;28;19924;-62
2022/12/15 03:11:51;;;;;;;;;;;;;;;;;;5082479;28;19928;-62
2022/12/15 03:14:16;;;;;;;;;;;;;;;;;;5079300;28;19929;-62
2022/12/15 03:16:42;;;;;;;;;;;;;;;;;;5081205;28;20390;-61
2022/12/15 03:19:07;;;;;;;;;;;;;;;;;;5080684;28;20008;-62
2022/12/15 03:21:32;;;;;;;;;;;;;;;;;;5083342;28;19997;-68
2022/12/15 03:23:58;;;;;;;;;;;;;;;;;;5079290;28;20286;-70
2022/12/15 03:26:23;;;;;;;;;;;;;;;;;;5080913;28;19931;-69
2022/12/15 03:28:48;;;;;;;;;;;;;;;;;;5080392;28;20358;-69
2022/12/15 03:31:14;;;;;;;;;;;;;;;;;;5078650;28;19928;-69
2022/12/15 03:33:39;;;;;;;;;;;;;;;;;;5080649;28;20430;-70
2022/12/15 03:36:05;;;;;;;;;;;;;;;;;;5085943;28;19932;-68
2022/12/15 03:38:30;;;;;;;;;;;;;;;;;;5078857;28;20352;-69
2022/12/15 03:40:55;;;;;;;;;;;;;;;;;;5079269;28;19927;-68
2022/12/15 03:43:21;;;;;;;;;;;;;;;;;;5081364;28;19924;-70
2022/12/15 03:45:46;;;;;;;;;;;;;;;;;;5075935;28;20305;-69
2022/12/15 03:48:11;;;;;;;;;;;;;;;;;;5080849;28;20014;-69
2022/12/15 03:50:37;;;;;;;;;;;;;;;;;;5080505;28;19977;-69
2022/12/15 03:53:03;;;;;;;;;;;;;;;;;;5083491;28;19932;-69
2022/12/15 03:55:28;;;;;;;;;;;;;;;;;;5075083;28;19939;-69
2022/12/15 03:57:54;;;;;;;;;;;;;;;;;;5082103;28;20448;-69
2022/12/15 04:00:20;;;;;;;;;;;;;;;;;;5077665;28;19927;-69
2022/12/15 04:02:45;;;;;;;;;;;;;;;;;;5082868;28;19928;-68
2022/12/15 04:05:19;;;;;;;;;;;;;;;;;;5075912;28;20003;-69
2022/12/15 04:07:44;;;;;;;;;;;;;;;;;;5079630;28;19924;-62
2022/12/15 04:10:09;;;;;;;;;;;;;;;;;;5076862;28;19981;-62
2022/12/15 04:12:38;;;;;;;;;;;;;;;;;;5076939;28;19939;-63
2022/12/15 04:15:04;;;;;;;;;;;;;;;;;;5077641;28;20002;-62
2022/12/15 04:17:30;;;;;;;;;;;;;;;;;;5080020;28;19932;-62
2022/12/15 04:20:10;;;;;;;;;;;;;;;;;;5082647;28;20308;-62
2022/12/15 04:22:35;;;;;;;;;;;;;;;;;;5080044;28;19932;-62
2022/12/15 05:33:19;;;;;;;;;;;;;;;;;;5078263;28;19934;-60
2022/12/15 05:35:44;;;;;;;;;;;;;;;;;;5080881;28;19928;-61
2022/12/15 05:38:09;;;;;;;;;;;;;;;;;;5083285;28;19939;-61
2022/12/15 05:40:34;;;;;;;;;;;;;;;;;;5078330;28;20594;-61
2022/12/15 05:43:00;;;;;;;;;;;;;;;;;;5083620;28;20326;-61
2022/12/15 05:45:26;;;;;;;;;;;;;;;;;;5083882;28;19974;-61
2022/12/15 05:47:51;;;;;;;;;;;;;;;;;;5080999;28;19928;-60
2022/12/15 05:50:17;;;;;;;;;;;;;;;;;;5074413;28;19924;-60
2022/12/15 05:52:42;;;;;;;;;;;;;;;;;;5079041;28;20006;-61
2022/12/15 05:55:08;;;;;;;;;;;;;;;;;;5078703;28;20302;-59
2022/12/15 05:57:33;;;;;;;;;;;;;;;;;;5082586;28;19924;-61
2022/12/15 05:59:58;;;;;;;;;;;;;;;;;;5078826;28;19974;-62
2022/12/15 06:02:24;;;;;;;;;;;;;;;;;;5081835;28;20019;-61
2022/12/15 06:04:49;;;;;;;;;;;;;;;;;;5081177;28;20534;-66
2022/12/15 06:07:14;;;;;;;;;;;;;;;;;;5081410;28;19964;-61
2022/12/15 06:09:39;;;;;;;;;;;;;;;;;;5077947;28;20951;-60
2022/12/15 06:12:05;;;;;;;;;;;;;;;;;;5078804;28;19932;-62
2022/12/15 06:14:30;;;;;;;;;;;;;;;;;;5081405;28;20390;-60
2022/12/15 06:16:55;;;;;;;;;;;;;;;;;;5080822;28;19924;-61
2022/12/15 06:19:21;;;;;;;;;;;;;;;;;;5081325;28;19928;-61
2022/12/15 06:21:46;;;;;;;;;;;;;;;;;;5081242;28;20440;-61
2022/12/15 06:24:11;;;;;;;;;;;;;;;;;;5083174;28;19935;-60
2022/12/15 06:26:38;;;;;;;;;;;;;;;;;;5082513;28;19959;-61
2022/12/15 06:29:06;;;;;;;;;;;;;;;;;;5083052;28;20008;-61
2022/12/15 06:31:31;;;;;;;;;;;;;;;;;;5085879;28;19940;-60
2022/12/15 06:33:57;;;;;;;;;;;;;;;;;;5086347;28;20561;-62
2022/12/15 06:36:23;;;;;;;;;;;;;;;;;;5086119;28;19932;-61
2022/12/15 06:38:49;;;;;;;;;;;;;;;;;;5085028;28;19924;-61
2022/12/15 06:41:15;;;;;;;;;;;;;;;;;;5084627;28;20283;-61
2022/12/15 06:43:41;;;;;;;;;;;;;;;;;;5087598;28;19983;-61
2022/12/15 06:46:07;;;;;;;;;;;;;;;;;;5079722;28;19928;-61
2022/12/15 06:48:33;;;;;;;;;;;;;;;;;;5086551;28;19924;-61
2022/12/15 06:51:03;;;;;;;;;;;;;;;;;;5085025;28;19930;-61
2022/12/15 06:53:29;;;;;;;;;;;;;;;;;;5079546;28;19930;-62
2022/12/15 06:55:58;;;;;;;;;;;;;;;;;;5078718;28;19924;-61
2022/12/15 06:58:24;;;;;;;;;;;;;;;;;;5081197;28;19924;-60
2022/12/15 07:00:49;;;;;;;;;;;;;;;;;;5082725;28;19923;-61
2022/12/15 07:03:15;;;;;;;;;;;;;;;;;;5087057;28;20466;-60
2022/12/15 07:05:41;;;;;;;;;;;;;;;;;;5086247;28;19977;-61
2022/12/15 07:08:07;;;;;;;;;;;;;;;;;;5088596;28;20382;-61
2022/12/15 07:10:33;;;;;;;;;;;;;;;;;;5084102;28;19928;-61
2022/12/15 07:12:58;;;;;;;;;;;;;;;;;;5081636;28;19924;-61
2022/12/15 07:15:23;;;;;;;;;;;;;;;;;;5084495;28;19920;-61
2022/12/15 07:17:49;;;;;;;;;;;;;;;;;;5081302;28;19924;-61
2022/12/15 07:20:15;;;;;;;;;;;;;;;;;;5064898;28;19969;-61
2022/12/15 07:22:40;;;;;;;;;;;;;;;;;;5061250;28;19956;-62
2022/12/15 07:25:06;;;;;;;;;;;;;;;;;;5082030;28;19927;-61
2022/12/15 07:27:31;;;;;;;;;;;;;;;;;;5081039;28;19920;-61
2022/12/15 07:29:57;;;;;;;;;;;;;;;;;;5084375;28;19939;-61
2022/12/15 07:32:22;;;;;;;;;;;;;;;;;;5082710;28;20055;-61
2022/12/15 07:34:47;;;;;;;;;;;;;;;;;;5074170;28;20010;-61
2022/12/15 07:37:13;;;;;;;;;;;;;;;;;;5077018;28;19951;-60
2022/12/15 07:39:38;;;;;;;;;;;;;;;;;;5080456;28;19998;-60
2022/12/15 07:42:03;;;;;;;;;;;;;;;;;;5075399;28;20053;-61
2022/12/15 07:44:30;;;;;;;;;;;;;;;;;;5078441;28;20031;-61
2022/12/15 07:46:56;;;;;;;;;;;;;;;;;;5080400;28;20325;-61
2022/12/15 07:49:21;;;;;;;;;;;;;;;;;;5079190;28;19930;-62
2022/12/15 07:51:46;;;;;;;;;;;;;;;;;;5080111;28;19924;-61
2022/12/15 07:54:12;;;;;;;;;;;;;;;;;;5082046;28;20302;-61
2022/12/15 07:56:38;;;;;;;;;;;;;;;;;;5079456;28;20646;-61
2022/12/15 07:59:04;;;;;;;;;;;;;;;;;;5079314;28;20432;-61
2022/12/15 08:01:29;;;;;;;;;;;;;;;;;;5077260;28;19969;-61
2022/12/15 08:03:55;;;;;;;;;;;;;;;;;;5082634;28;20295;-61
2022/12/15 08:06:20;;;;;;;;;;;;;;;;;;5072472;28;20465;-60
2022/12/15 08:08:46;;;;;;;;;;;;;;;;;;5078511;28;19955;-61
2022/12/15 08:11:12;;;;;;;;;;;;;;;;;;5077850;28;19947;-63
2022/12/15 08:13:37;;;;;;;;;;;;;;;;;;5078406;28;19950;-61
2022/12/15 08:16:03;;;;;;;;;;;;;;;;;;5080661;28;20371;-61
2022/12/15 08:18:28;;;;;;;;;;;;;;;;;;5077886;28;19928;-61
2022/12/15 08:20:54;;;;;;;;;;;;;;;;;;5081453;28;19950;-61
2022/12/15 08:23:19;;;;;;;;;;;;;;;;;;5085594;28;20403;-61
2022/12/15 08:25:44;;;;;;;;;;;;;;;;;;5080318;28;20318;-65
2022/12/15 08:28:10;;;;;;;;;;;;;;;;;;5081955;28;19931;-61
2022/12/15 08:30:35;;;;;;;;;;;;;;;;;;5083479;28;19924;-61
2022/12/15 08:33:01;;;;;;;;;;;;;;;;;;5086356;28;20072;-62
2022/12/15 08:35:26;;;;;;;;;;;;;;;;;;5082086;28;19935;-61
2022/12/15 08:37:52;;;;;;;;;;;;;;;;;;5080311;28;21014;-62
2022/12/15 08:40:17;;;;;;;;;;;;;;;;;;5082989;28;19928;-61
2022/12/15 08:42:42;;;;;;;;;;;;;;;;;;5087509;28;19995;-61
2022/12/15 08:45:08;;;;;;;;;;;;;;;;;;5082874;28;19947;-61
2022/12/15 08:47:33;;;;;;;;;;;;;;;;;;5081568;28;19944;-60
2022/12/15 08:49:59;;;;;;;;;;;;;;;;;;5084190;28;19932;-60
2022/12/15 08:52:24;;;;;;;;;;;;;;;;;;5080187;28;19939;-60
2022/12/15 08:54:49;;;;;;;;;;;;;;;;;;5085828;28;19924;-61
2022/12/15 08:57:15;;;;;;;;;;;;;;;;;;5074952;28;19929;-61
2022/12/15 08:59:40;;;;;;;;;;;;;;;;;;5075650;28;20402;-60
2022/12/15 09:02:05;;;;;;;;;;;;;;;;;;5076442;28;19962;-61
2022/12/15 09:04:31;;;;;;;;;;;;;;;;;;5074461;28;19928;-60
2022/12/15 09:06:56;;;;;;;;;;;;;;;;;;5077447;28;19924;-61
2022/12/15 09:09:21;;;;;;;;;;;;;;;;;;5076334;28;19964;-61
2022/12/15 09:11:47;;;;;;;;;;;;;;;;;;5076831;28;19952;-61
2022/12/15 09:14:13;;;;;;;;;;;;;;;;;;5059885;28;19963;-61
2022/12/15 09:16:38;;;;;;;;;;;;;;;;;;5060516;28;19932;-61
2022/12/15 09:19:04;;;;;;;;;;;;;;;;;;5076947;28;19924;-61
2022/12/15 09:21:29;;;;;;;;;;;;;;;;;;5076668;28;20301;-61
2022/12/15 09:23:59;;;;;;;;;;;;;;;;;;5075977;28;19932;-60
2022/12/15 09:26:24;;;;;;;;;;;;;;;;;;5077742;28;19970;-61
2022/12/15 09:28:49;;;;;;;;;;;;;;;;;;5077708;28;19932;-61
2022/12/15 09:31:16;;;;;;;;;;;;;;;;;;5079187;28;19924;-61
2022/12/15 09:33:41;;;;;;;;;;;;;;;;;;5074298;28;19920;-61
2022/12/15 09:36:07;;;;;;;;;;;;;;;;;;5079467;28;20344;-61
2022/12/15 09:38:33;;;;;;;;;;;;;;;;;;5076165;28;20352;-61
2022/12/15 09:41:06;;;;;;;;;;;;;;;;;;5079134;28;19924;-61
2022/12/15 09:43:31;;;;;;;;;;;;;;;;;;5076213;28;19936;-61
2022/12/15 09:46:02;;;;;;;;;;;;;;;;;;5082933;28;19920;-65
2022/12/15 09:48:32;;;;;;;;;;;;;;;;;;5080451;28;20007;-61
2022/12/15 09:50:58;;;;;;;;;;;;;;;;;;5083841;28;20026;-61
2022/12/15 09:53:24;;;;;;;;;;;;;;;;;;5086990;28;20019;-66
2022/12/15 09:55:54;;;;;;;;;;;;;;;;;;5080597;28;19964;-61
2022/12/15 09:58:35;;;;;;;;;;;;;;;;;;5082098;28;19999;-61
2022/12/15 10:01:06;;;;;;;;;;;;;;;;;;5083065;28;19928;-61
2022/12/15 10:03:44;;;;;;;;;;;;;;;;;;5083871;28;19931;-62
2022/12/15 10:06:12;;;;;;;;;;;;;;;;;;5082677;28;19935;-61
2022/12/15 10:08:39;;;;;;;;;;;;;;;;;;5084185;28;20371;-63
2022/12/15 10:11:14;;;;;;;;;;;;;;;;;;5084515;28;19932;-61
2022/12/15 10:13:45;;;;;;;;;;;;;;;;;;5082315;28;19997;-62
2022/12/15 10:16:23;;;;;;;;;;;;;;;;;;5083496;28;19934;-62
2022/12/15 10:18:58;;;;;;;;;;;;;;;;;;5087183;28;19924;-62
2022/12/15 10:21:25;;;;;;;;;;;;;;;;;;5085879;28;19963;-62
2022/12/15 10:23:52;;;;;;;;;;;;;;;;;;5083516;28;20014;-63
2022/12/15 10:26:22;;;;;;;;;;;;;;;;;;5084093;28;19986;-62
2022/12/15 10:29:13;;;;;;;;;;;;;;;;;;5083180;28;19933;-63
2022/12/15 10:31:48;;;;;;;;;;;;;;;;;;5077202;28;20699;-62
2022/12/15 10:34:32;;;;;;;;;;;;;;;;;;5081260;28;20002;-63
2022/12/15 10:36:58;;;;;;;;;;;;;;;;;;5084918;28;19924;-63
2022/12/15 10:39:35;;;;;;;;;;;;;;;;;;5085814;28;19996;-63
2022/12/15 10:42:10;;;;;;;;;;;;;;;;;;5085629;28;20011;-63
2022/12/15 10:44:37;;;;;;;;;;;;;;;;;;5079078;28;19939;-63
2022/12/15 10:47:07;;;;;;;;;;;;;;;;;;5080611;28;19943;-63
2022/12/15 10:49:33;;;;;;;;;;;;;;;;;;5076260;28;19936;-62
2022/12/15 10:51:59;;;;;;;;;;;;;;;;;;5066248;28;19924;-62
2022/12/15 10:54:34;;;;;;;;;;;;;;;;;;5082199;28;19934;-62
2022/12/15 10:57:13;;;;;;;;;;;;;;;;;;5082950;28;19928;-62
2022/12/15 10:59:38;;;;;;;;;;;;;;;;;;5082548;28;19935;-62
2022/12/15 11:02:20;;;;;;;;;;;;;;;;;;5083261;28;20275;-62
2022/12/15 11:04:55;;;;;;;;;;;;;;;;;;5081496;28;19932;-62
2022/12/15 11:07:21;;;;;;;;;;;;;;;;;;5081734;28;19963;-62
2022/12/15 11:09:47;;;;;;;;;;;;;;;;;;5083694;28;19958;-62
2022/12/15 11:15:22;;;;;;;;;;;;;;;;;;5079987;28;20448;-62
2022/12/15 11:18:11;;;;;;;;;;;;;;;;;;5083402;28;19928;-62
2022/12/15 11:20:40;;;;;;;;;;;;;;;;;;5068871;28;19928;-63
2022/12/15 11:23:14;;;;;;;;;;;;;;;;;;5084582;28;19924;-62
2022/12/15 11:25:50;;;;;;;;;;;;;;;;;;5085049;28;19928;-62
2022/12/15 11:28:18;;;;;;;;;;;;;;;;;;5083685;28;19930;-63
2022/12/15 11:30:45;;;;;;;;;;;;;;;;;;5083629;28;19920;-62
2022/12/15 11:33:11;;;;;;;;;;;;;;;;;;5077507;28;19951;-62
2022/12/15 11:35:39;;;;;;;;;;;;;;;;;;5082727;28;19928;-62
2022/12/15 11:38:24;;;;;;;;;;;;;;;;;;5083999;28;20268;-62
2022/12/15 11:40:51;;;;;;;;;;;;;;;;;;5082567;28;20271;-62
2022/12/15 11:43:45;;;;;;;;;;;;;;;;;;5083041;28;20030;-62
2022/12/15 11:46:17;;;;;;;;;;;;;;;;;;5072133;28;20010;-62
2022/12/15 11:49:01;;;;;;;;;;;;;;;;;;5081116;28;19924;-62
2022/12/15 11:51:29;;;;;;;;;;;;;;;;;;5082778;28;20750;-62
2022/12/15 11:54:01;;;;;;;;;;;;;;;;;;5081890;28;19924;-62
2022/12/15 11:56:29;;;;;;;;;;;;;;;;;;5081948;28;20310;-62
2022/12/15 11:59:14;;;;;;;;;;;;;;;;;;5083725;28;19928;-62
2022/12/15 12:01:59;;;;;;;;;;;;;;;;;;5079154;28;19928;-62
2022/12/15 12:04:24;;;;;;;;;;;;;;;;;;5085458;28;20023;-62
2022/12/15 12:07:10;;;;;;;;;;;;;;;;;;5080079;28;19999;-60
2022/12/15 12:09:38;;;;;;;;;;;;;;;;;;5072077;28;19955;-60
2022/12/15 12:12:10;;;;;;;;;;;;;;;;;;5081466;28;19981;-61
2022/12/15 12:14:45;;;;;;;;;;;;;;;;;;5078704;28;19931;-59
2022/12/15 12:17:19;;;;;;;;;;;;;;;;;;5084262;28;20299;-60
2022/12/15 12:19:47;;;;;;;;;;;;;;;;;;5082250;28;19971;-58
2022/12/15 12:22:19;;;;;;;;;;;;;;;;;;5085229;28;19928;-57
2022/12/15 12:24:46;;;;;;;;;;;;;;;;;;5086151;28;19971;-59
2022/12/15 12:27:17;;;;;;;;;;;;;;;;;;5084791;28;19950;-59
2022/12/15 12:29:48;;;;;;;;;;;;;;;;;;5083707;28;19924;-58
2022/12/15 12:32:26;;;;;;;;;;;;;;;;;;5083252;28;19934;-59
2022/12/15 12:34:51;;;;;;;;;;;;;;;;;;5087134;28;19935;-59
2022/12/15 12:37:19;;;;;;;;;;;;;;;;;;5087259;28;20290;-59
2022/12/15 12:39:45;;;;;;;;;;;;;;;;;;5079832;28;19920;-54
2022/12/15 12:42:13;;;;;;;;;;;;;;;;;;5075224;28;19932;-55
2022/12/15 12:44:39;;;;;;;;;;;;;;;;;;5071019;28;20296;-59
2022/12/15 12:47:07;;;;;;;;;;;;;;;;;;5070641;28;19978;-61
2022/12/15 12:49:36;;;;;;;;;;;;;;;;;;5077415;28;20370;-59
2022/12/15 12:52:02;;;;;;;;;;;;;;;;;;5075943;28;19924;-60
2022/12/15 12:54:31;;;;;;;;;;;;;;;;;;5092995;28;20450;-58
2022/12/15 12:56:56;;;;;;;;;;;;;;;;;;5073754;28;19950;-59
2022/12/15 12:59:27;;;;;;;;;;;;;;;;;;5073468;28;21388;-58
2022/12/15 13:01:56;;;;;;;;;;;;;;;;;;5073454;28;19936;-62
2022/12/15 13:04:21;;;;;;;;;;;;;;;;;;5072891;28;20019;-62
2022/12/15 13:06:46;;;;;;;;;;;;;;;;;;5075211;28;20022;-65
2022/12/15 13:09:21;;;;;;;;;;;;;;;;;;5076421;28;19924;-65
2022/12/15 13:11:52;;;;;;;;;;;;;;;;;;5075231;28;19932;-61
2022/12/15 13:14:23;;;;;;;;;;;;;;;;;;5072535;28;19993;-60
2022/12/15 13:16:54;;;;;;;;;;;;;;;;;;5072183;28;19932;-61
2022/12/15 13:19:39;;;;;;;;;;;;;;;;;;5073104;28;20939;-60
2022/12/15 13:22:21;;;;;;;;;;;;;;;;;;5070760;28;20089;-53
2022/12/15 13:24:46;;;;;;;;;;;;;;;;;;5078148;28;20032;-50
2022/12/15 13:27:16;;;;;;;;;;;;;;;;;;5070991;28;20399;-59
2022/12/15 13:29:53;;;;;;;;;;;;;;;;;;5080193;28;19924;-60
2022/12/15 13:32:27;;;;;;;;;;;;;;;;;;5076687;28;19932;-59
2022/12/15 13:34:52;;;;;;;;;;;;;;;;;;5075372;28;19974;-60
2022/12/15 13:37:36;;;;;;;;;;;;;;;;;;5074263;28;20026;-59
2022/12/15 13:40:21;;;;;;;;;;;;;;;;;;5075455;28;20298;-58
2022/12/15 13:42:55;;;;;;;;;;;;;;;;;;5074520;28;19931;-60
2022/12/15 13:45:27;;;;;;;;;;;;;;;;;;5077147;28;19938;-60
2022/12/15 13:47:53;;;;;;;;;;;;;;;;;;5081994;28;20394;-62
2022/12/15 13:50:28;;;;;;;;;;;;;;;;;;5075875;28;19977;-60
2022/12/15 13:52:54;;;;;;;;;;;;;;;;;;5075122;28;20500;-60
2022/12/15 13:55:24;;;;;;;;;;;;;;;;;;5078901;28;19924;-59
2022/12/15 13:58:08;;;;;;;;;;;;;;;;;;5077213;28;19976;-59
2022/12/15 14:00:34;;;;;;;;;;;;;;;;;;5076526;28;20027;-57
2022/12/15 14:03:09;;;;;;;;;;;;;;;;;;5079671;28;20027;-60
2022/12/15 14:05:36;;;;;;;;;;;;;;;;;;5073217;28;20333;-58
2022/12/15 14:08:06;;;;;;;;;;;;;;;;;;5075444;28;19950;-57
2022/12/15 14:10:31;;;;;;;;;;;;;;;;;;5076774;28;19967;-60
2022/12/15 14:13:00;;;;;;;;;;;;;;;;;;5077033;28;20082;-58
2022/12/15 14:15:30;;;;;;;;;;;;;;;;;;5073306;28;20023;-57
2022/12/15 14:17:56;;;;;;;;;;;;;;;;;;5077460;28;19986;-56
2022/12/15 14:20:23;;;;;;;;;;;;;;;;;;5078120;28;19932;-56
2022/12/15 14:22:51;;;;;;;;;;;;;;;;;;5083180;28;19977;-60
2022/12/15 14:25:29;;;;;;;;;;;;;;;;;;5079584;28;19931;-54
2022/12/15 14:27:54;;;;;;;;;;;;;;;;;;5077797;28;20031;-59
2022/12/15 14:30:25;;;;;;;;;;;;;;;;;;5081255;28;19928;-57
2022/12/15 14:32:59;;;;;;;;;;;;;;;;;;5083596;28;19928;-63
2022/12/15 14:35:28;;;;;;;;;;;;;;;;;;5080868;28;19928;-61
2022/12/15 14:37:54;;;;;;;;;;;;;;;;;;5086151;28;19928;-58
2022/12/15 14:40:20;;;;;;;;;;;;;;;;;;5078578;28;20436;-61
2022/12/15 14:42:45;;;;;;;;;;;;;;;;;;5081892;28;19924;-62
2022/12/15 14:45:18;;;;;;;;;;;;;;;;;;5082678;28;20402;-62
2022/12/15 14:47:49;;;;;;;;;;;;;;;;;;5081148;28;20302;-60
2022/12/15 14:50:15;;;;;;;;;;;;;;;;;;5086039;28;20017;-61
2022/12/15 14:52:41;;;;;;;;;;;;;;;;;;5074453;28;19936;-62
2022/12/15 14:55:22;;;;;;;;;;;;;;;;;;5079390;28;20023;-64
2022/12/15 14:57:50;;;;;;;;;;;;;;;;;;5074905;28;19927;-63
2022/12/15 15:00:23;;;;;;;;;;;;;;;;;;5074924;28;19935;-64
2022/12/15 15:02:48;;;;;;;;;;;;;;;;;;5079259;28;19935;-63
2022/12/15 15:05:24;;;;;;;;;;;;;;;;;;5080732;28;20302;-64
2022/12/15 15:07:53;;;;;;;;;;;;;;;;;;5075127;28;19993;-68
2022/12/15 15:10:21;;;;;;;;;;;;;;;;;;5077169;28;19935;-67
2022/12/15 15:12:47;;;;;;;;;;;;;;;;;;5080527;28;19981;-71
2022/12/15 15:15:16;;;;;;;;;;;;;;;;;;5075845;28;20487;-70
2022/12/15 15:17:45;;;;;;;;;;;;;;;;;;5079190;28;19924;-69
2022/12/15 15:20:30;;;;;;;;;;;;;;;;;;5079568;28;19939;-68
2022/12/15 15:23:11;;;;;;;;;;;;;;;;;;5080984;28;19932;-68
2022/12/15 15:25:37;;;;;;;;;;;;;;;;;;5070507;28;19971;-70
2022/12/15 15:28:02;;;;;;;;;;;;;;;;;;5062352;28;20306;-69
2022/12/15 15:30:28;;;;;;;;;;;;;;;;;;5073728;28;19934;-67
2022/12/15 15:32:55;;;;;;;;;;;;;;;;;;5075234;28;19963;-54
2022/12/15 15:35:21;;;;;;;;;;;;;;;;;;5072720;28;21136;-56
2022/12/15 15:37:46;;;;;;;;;;;;;;;;;;5072509;28;19924;-56
2022/12/15 15:40:14;;;;;;;;;;;;;;;;;;5072054;28;19939;-54
2022/12/15 15:42:40;;;;;;;;;;;;;;;;;;5071720;28;19931;-54
2022/12/15 15:45:11;;;;;;;;;;;;;;;;;;5074469;28;20310;-59
2022/12/15 15:47:36;;;;;;;;;;;;;;;;;;5071834;28;19932;-58
2022/12/15 15:50:02;;;;;;;;;;;;;;;;;;5073302;28;20386;-58
2022/12/15 15:52:28;;;;;;;;;;;;;;;;;;5072281;28;21186;-56
2022/12/15 15:54:53;;;;;;;;;;;;;;;;;;5072678;28;19927;-60
2022/12/15 15:57:19;;;;;;;;;;;;;;;;;;5074074;28;19924;-60
2022/12/15 15:59:45;;;;;;;;;;;;;;;;;;5079181;28;19928;-61
2022/12/15 16:02:12;;;;;;;;;;;;;;;;;;5076221;28;20323;-55
2022/12/15 16:04:40;;;;;;;;;;;;;;;;;;5075046;28;19958;-55
2022/12/15 16:07:06;;;;;;;;;;;;;;;;;;5080441;28;19977;-59
2022/12/15 16:09:31;;;;;;;;;;;;;;;;;;5083622;28;20386;-55
2022/12/15 16:11:57;;;;;;;;;;;;;;;;;;5082053;28;21005;-55
2022/12/15 16:14:22;;;;;;;;;;;;;;;;;;5080966;28;19936;-58
2022/12/15 16:16:48;;;;;;;;;;;;;;;;;;5082912;28;19950;-60
2022/12/15 16:19:13;;;;;;;;;;;;;;;;;;5080662;28;20337;-62
2022/12/15 16:21:39;;;;;;;;;;;;;;;;;;5079546;28;19935;-60
2022/12/15 16:24:08;;;;;;;;;;;;;;;;;;5081198;28;19977;-60
2022/12/15 16:26:36;;;;;;;;;;;;;;;;;;5082470;28;20413;-69
2022/12/15 16:29:01;;;;;;;;;;;;;;;;;;5078596;28;19932;-70
2022/12/15 16:31:31;;;;;;;;;;;;;;;;;;5083969;28;19932;-72
2022/12/15 16:33:56;;;;;;;;;;;;;;;;;;5075968;28;20350;-71
2022/12/15 16:36:22;;;;;;;;;;;;;;;;;;5080650;28;19928;-62
2022/12/15 16:38:47;;;;;;;;;;;;;;;;;;5079023;28;19956;-61
2022/12/15 16:41:14;;;;;;;;;;;;;;;;;;5078001;28;20534;-62
2022/12/15 16:43:39;;;;;;;;;;;;;;;;;;5080210;28;20385;-61
2022/12/15 16:46:05;;;;;;;;;;;;;;;;;;5078678;28;20034;-62
2022/12/15 16:48:30;;;;;;;;;;;;;;;;;;5079735;28;19928;-61
2022/12/15 16:50:59;;;;;;;;;;;;;;;;;;5075962;28;20310;-63
2022/12/15 16:53:29;;;;;;;;;;;;;;;;;;5080275;28;19928;-61
2022/12/15 16:55:56;;;;;;;;;;;;;;;;;;5075915;28;19928;-60
2022/12/15 16:58:21;;;;;;;;;;;;;;;;;;5076295;28;19939;-59
2022/12/15 17:00:47;;;;;;;;;;;;;;;;;;5068710;28;19936;-70
2022/12/15 17:03:17;;;;;;;;;;;;;;;;;;5079868;28;19928;-69
2022/12/15 17:05:44;;;;;;;;;;;;;;;;;;5077545;28;20350;-70
2022/12/15 17:08:14;;;;;;;;;;;;;;;;;;5078403;28;19939;-71
2022/12/15 17:10:41;;;;;;;;;;;;;;;;;;5076537;28;19928;-69
2022/12/15 17:13:15;;;;;;;;;;;;;;;;;;5076593;28;19920;-70
2022/12/15 17:15:40;;;;;;;;;;;;;;;;;;5073405;28;20445;-69
2022/12/15 17:18:06;;;;;;;;;;;;;;;;;;5081239;28;20042;-68
2022/12/15 17:20:31;;;;;;;;;;;;;;;;;;5081251;28;19924;-70
2022/12/15 17:23:07;;;;;;;;;;;;;;;;;;5079980;28;19981;-69
2022/12/15 17:25:37;;;;;;;;;;;;;;;;;;5078817;28;20275;-70
2022/12/15 17:28:05;;;;;;;;;;;;;;;;;;5080376;28;20026;-69
2022/12/15 17:30:31;;;;;;;;;;;;;;;;;;5080342;28;19956;-70
2022/12/15 17:32:56;;;;;;;;;;;;;;;;;;5082528;28;19967;-70
2022/12/15 17:35:21;;;;;;;;;;;;;;;;;;5079148;28;20620;-70
2022/12/15 17:37:47;;;;;;;;;;;;;;;;;;5080116;28;19939;-69
2022/12/15 17:40:22;;;;;;;;;;;;;;;;;;5080903;28;19929;-68
2022/12/15 17:42:48;;;;;;;;;;;;;;;;;;5079471;28;20202;-67
2022/12/15 17:45:14;;;;;;;;;;;;;;;;;;5074648;28;19932;-66
2022/12/15 17:47:39;;;;;;;;;;;;;;;;;;5080593;28;19931;-68
2022/12/15 17:50:05;;;;;;;;;;;;;;;;;;5076892;28;19928;-69
2022/12/15 17:52:33;;;;;;;;;;;;;;;;;;5079618;28;19935;-69
2022/12/15 17:54:59;;;;;;;;;;;;;;;;;;5079904;28;19928;-68
2022/12/15 17:57:24;;;;;;;;;;;;;;;;;;5080798;28;19940;-68
2022/12/15 17:59:49;;;;;;;;;;;;;;;;;;5082564;28;20001;-69
2022/12/15 18:02:15;;;;;;;;;;;;;;;;;;5077430;28;19932;-66
2022/12/15 18:04:41;;;;;;;;;;;;;;;;;;5077472;28;19989;-69
2022/12/15 18:07:12;;;;;;;;;;;;;;;;;;5076519;28;19924;-70
2022/12/15 18:09:37;;;;;;;;;;;;;;;;;;5078456;28;19935;-69
2022/12/15 18:12:05;;;;;;;;;;;;;;;;;;5080811;28;19951;-69
2022/12/15 18:14:30;;;;;;;;;;;;;;;;;;5079257;28;20005;-70
2022/12/15 18:16:56;;;;;;;;;;;;;;;;;;5081441;28;19928;-69
2022/12/15 18:19:22;;;;;;;;;;;;;;;;;;5085304;28;19939;-69
2022/12/15 18:21:47;;;;;;;;;;;;;;;;;;5085716;28;19928;-69
2022/12/15 18:24:14;;;;;;;;;;;;;;;;;;5079364;28;19993;-70
2022/12/15 18:26:39;;;;;;;;;;;;;;;;;;5086345;28;19932;-67
2022/12/15 18:29:12;;;;;;;;;;;;;;;;;;5087501;28;19926;-68
2022/12/15 18:31:37;;;;;;;;;;;;;;;;;;5088075;28;19958;-60
2022/12/15 18:34:07;;;;;;;;;;;;;;;;;;5087872;28;19979;-60
2022/12/15 18:36:34;;;;;;;;;;;;;;;;;;5084388;28;20404;-56
2022/12/15 18:39:00;;;;;;;;;;;;;;;;;;5087835;28;19931;-55
2022/12/15 18:41:26;;;;;;;;;;;;;;;;;;5084148;28;19978;-57
2022/12/15 18:43:55;;;;;;;;;;;;;;;;;;5082853;28;19935;-57
2022/12/15 18:46:20;;;;;;;;;;;;;;;;;;5075574;28;20271;-57
2022/12/15 18:48:45;;;;;;;;;;;;;;;;;;5077912;28;19924;-58
2022/12/15 18:51:18;;;;;;;;;;;;;;;;;;5082176;28;19924;-61
2022/12/15 18:53:44;;;;;;;;;;;;;;;;;;5084454;28;20058;-63
2022/12/15 18:56:12;;;;;;;;;;;;;;;;;;5078823;28;19928;-68
2022/12/15 18:58:40;;;;;;;;;;;;;;;;;;5081325;28;19932;-68
2022/12/15 19:01:06;;;;;;;;;;;;;;;;;;5078617;28;19944;-67
2022/12/15 19:03:32;;;;;;;;;;;;;;;;;;5079227;28;19924;-68
2022/12/15 19:06:02;;;;;;;;;;;;;;;;;;5079850;28;20515;-54
2022/12/15 19:08:29;;;;;;;;;;;;;;;;;;5076368;28;19928;-55
2022/12/15 19:10:59;;;;;;;;;;;;;;;;;;5075249;28;19932;-59
2022/12/15 19:13:27;;;;;;;;;;;;;;;;;;5077464;28;20366;-57
2022/12/15 19:15:53;;;;;;;;;;;;;;;;;;5078258;28;19975;-56
2022/12/15 19:23:56;;;;;;;;;;;;;;;;;;5079278;28;20398;-61